sensor_id;sensor_type;location;lat;lon;timestamp;pressure;altitude;pressure_sealevel;temperature;humidity
60852;BME280;48553;50.766;2.900;2023-04-09T00:04:02;101782.72;;;8.93;78.09
60852;BME280;48553;50.766;2.900;2023-04-09T00:07:02;101771.88;;;8.88;77.97
60852;BME280;48553;50.766;2.900;2023-04-09T00:10:03;101771.03;;;8.88;78.28
60852;BME280;48553;50.766;2.900;2023-04-09T00:13:03;101776.31;;;8.84;77.99
60852;BME280;48553;50.766;2.900;2023-04-09T00:16:04;101772.25;;;8.82;78.02
60852;BME280;48553;50.766;2.900;2023-04-09T00:19:04;101775.28;;;8.80;78.14
60852;BME280;48553;50.766;2.900;2023-04-09T00:22:05;101770.94;;;8.79;77.97
60852;BME280;48553;50.766;2.900;2023-04-09T00:25:06;101767.97;;;8.75;78.04
60852;BME280;48553;50.766;2.900;2023-04-09T00:28:07;101762.28;;;8.72;78.33
60852;BME280;48553;50.766;2.900;2023-04-09T00:31:07;101755.72;;;8.73;77.89
60852;BME280;48553;50.766;2.900;2023-04-09T00:34:08;101759.34;;;8.68;78.10
60852;BME280;48553;50.766;2.900;2023-04-09T00:37:09;101762.69;;;8.65;78.22
60852;BME280;48553;50.766;2.900;2023-04-09T00:40:10;101767.31;;;8.65;78.16
60852;BME280;48553;50.766;2.900;2023-04-09T00:43:10;101758.31;;;8.64;77.83
60852;BME280;48553;50.766;2.900;2023-04-09T00:46:11;101759.72;;;8.62;77.89
60852;BME280;48553;50.766;2.900;2023-04-09T00:49:11;101760.81;;;8.61;77.93
60852;BME280;48553;50.766;2.900;2023-04-09T00:52:12;101763.06;;;8.59;77.92
60852;BME280;48553;50.766;2.900;2023-04-09T00:55:12;101758.16;;;8.55;77.83
60852;BME280;48553;50.766;2.900;2023-04-09T00:58:13;101757.66;;;8.53;77.77
60852;BME280;48553;50.766;2.900;2023-04-09T01:01:14;101753.59;;;8.51;77.82
60852;BME280;48553;50.766;2.900;2023-04-09T01:04:14;101745.72;;;8.49;77.92
60852;BME280;48553;50.766;2.900;2023-04-09T01:10:55;101748.50;;;8.44;78.08
60852;BME280;48553;50.766;2.900;2023-04-09T01:14:05;101737.06;;;8.42;78.06
60852;BME280;48553;50.766;2.900;2023-04-09T01:17:44;101746.94;;;8.38;77.93
60852;BME280;48553;50.766;2.900;2023-04-09T01:21:05;101738.75;;;8.38;77.93
60852;BME280;48553;50.766;2.900;2023-04-09T01:24:20;101743.69;;;8.36;78.02
60852;BME280;48553;50.766;2.900;2023-04-09T01:27:27;101745.09;;;8.33;77.83
60852;BME280;48553;50.766;2.900;2023-04-09T01:30:33;101741.84;;;8.31;77.73
60852;BME280;48553;50.766;2.900;2023-04-09T01:33:36;101728.50;;;8.30;77.87
60852;BME280;48553;50.766;2.900;2023-04-09T01:36:38;101728.56;;;8.25;77.65
60852;BME280;48553;50.766;2.900;2023-04-09T01:39:39;101738.66;;;8.24;77.99
60852;BME280;48553;50.766;2.900;2023-04-09T01:42:40;101735.13;;;8.24;78.02
60852;BME280;48553;50.766;2.900;2023-04-09T01:45:43;101729.47;;;8.20;77.64
60852;BME280;48553;50.766;2.900;2023-04-09T01:48:45;101733.28;;;8.19;77.93
60852;BME280;48553;50.766;2.900;2023-04-09T01:51:46;101733.88;;;8.16;78.05
60852;BME280;48553;50.766;2.900;2023-04-09T01:54:46;101729.50;;;8.15;77.71
60852;BME280;48553;50.766;2.900;2023-04-09T01:57:47;101725.16;;;8.14;77.82
60852;BME280;48553;50.766;2.900;2023-04-09T02:00:48;101727.09;;;8.13;77.79
60852;BME280;48553;50.766;2.900;2023-04-09T02:03:57;101727.16;;;8.08;77.88
60852;BME280;48553;50.766;2.900;2023-04-09T02:07:11;101723.59;;;8.08;78.17
60852;BME280;48553;50.766;2.900;2023-04-09T02:10:14;101718.47;;;8.06;77.94
60852;BME280;48553;50.766;2.900;2023-04-09T02:13:18;101720.34;;;8.06;78.14
60852;BME280;48553;50.766;2.900;2023-04-09T02:16:19;101720.97;;;8.03;77.90
60852;BME280;48553;50.766;2.900;2023-04-09T02:19:19;101722.06;;;8.02;77.99
60852;BME280;48553;50.766;2.900;2023-04-09T02:22:20;101715.78;;;8.01;78.14
60852;BME280;48553;50.766;2.900;2023-04-09T02:25:21;101723.44;;;7.99;77.85
60852;BME280;48553;50.766;2.900;2023-04-09T02:28:22;101712.53;;;7.99;77.97
60852;BME280;48553;50.766;2.900;2023-04-09T02:31:22;101719.41;;;7.97;78.00
60852;BME280;48553;50.766;2.900;2023-04-09T02:34:23;101716.47;;;7.93;78.02
60852;BME280;48553;50.766;2.900;2023-04-09T02:37:23;101709.38;;;7.92;78.21
60852;BME280;48553;50.766;2.900;2023-04-09T02:40:24;101708.56;;;7.91;77.92
60852;BME280;48553;50.766;2.900;2023-04-09T02:43:24;101699.25;;;7.92;78.18
60852;BME280;48553;50.766;2.900;2023-04-09T02:46:25;101702.28;;;7.91;78.40
60852;BME280;48553;50.766;2.900;2023-04-09T02:49:25;101702.56;;;7.89;78.29
60852;BME280;48553;50.766;2.900;2023-04-09T02:52:26;101696.03;;;7.90;78.55
60852;BME280;48553;50.766;2.900;2023-04-09T02:55:26;101695.19;;;7.90;78.83
60852;BME280;48553;50.766;2.900;2023-04-09T02:58:27;101699.84;;;7.89;78.53
60852;BME280;48553;50.766;2.900;2023-04-09T03:01:27;101697.41;;;7.88;78.88
60852;BME280;48553;50.766;2.900;2023-04-09T03:04:27;101690.56;;;7.90;78.63
60852;BME280;48553;50.766;2.900;2023-04-09T03:07:28;101695.50;;;7.88;79.10
60852;BME280;48553;50.766;2.900;2023-04-09T03:10:28;101698.22;;;7.88;79.42
60852;BME280;48553;50.766;2.900;2023-04-09T03:13:29;101684.59;;;7.88;79.30
60852;BME280;48553;50.766;2.900;2023-04-09T03:16:29;101682.66;;;7.89;79.52
60852;BME280;48553;50.766;2.900;2023-04-09T03:19:30;101682.66;;;7.89;79.61
60852;BME280;48553;50.766;2.900;2023-04-09T03:22:37;101680.75;;;7.89;79.65
60852;BME280;48553;50.766;2.900;2023-04-09T03:25:37;101678.28;;;7.88;80.03
60852;BME280;48553;50.766;2.900;2023-04-09T03:28:37;101679.69;;;7.85;80.10
60852;BME280;48553;50.766;2.900;2023-04-09T03:31:38;101680.81;;;7.84;80.23
60852;BME280;48553;50.766;2.900;2023-04-09T03:34:38;101679.69;;;7.85;80.50
60852;BME280;48553;50.766;2.900;2023-04-09T03:37:39;101671.50;;;7.85;80.23
60852;BME280;48553;50.766;2.900;2023-04-09T03:40:39;101668.78;;;7.85;80.28
60852;BME280;48553;50.766;2.900;2023-04-09T03:43:41;101667.19;;;7.84;80.52
60852;BME280;48553;50.766;2.900;2023-04-09T03:46:42;101669.63;;;7.86;80.49
60852;BME280;48553;50.766;2.900;2023-04-09T03:49:42;101672.34;;;7.86;80.59
60852;BME280;48553;50.766;2.900;2023-04-09T03:52:43;101664.16;;;7.86;80.51
60852;BME280;48553;50.766;2.900;2023-04-09T03:55:43;101666.06;;;7.85;80.65
60852;BME280;48553;50.766;2.900;2023-04-09T03:58:44;101655.44;;;7.84;80.58
60852;BME280;48553;50.766;2.900;2023-04-09T04:01:44;101667.19;;;7.84;80.39
60852;BME280;48553;50.766;2.900;2023-04-09T04:04:44;101666.66;;;7.82;80.60
60852;BME280;48553;50.766;2.900;2023-04-09T04:07:45;101675.13;;;7.81;80.99
60852;BME280;48553;50.766;2.900;2023-04-09T04:10:45;101670.50;;;7.81;80.83
60852;BME280;48553;50.766;2.900;2023-04-09T04:13:46;101672.41;;;7.81;80.88
60852;BME280;48553;50.766;2.900;2023-04-09T04:16:46;101665.34;;;7.80;80.71
60852;BME280;48553;50.766;2.900;2023-04-09T04:19:47;101667.53;;;7.78;80.71
60852;BME280;48553;50.766;2.900;2023-04-09T04:22:47;101673.00;;;7.78;80.46
60852;BME280;48553;50.766;2.900;2023-04-09T04:25:47;101680.06;;;7.79;80.47
60852;BME280;48553;50.766;2.900;2023-04-09T04:28:48;101668.06;;;7.80;80.53
60852;BME280;48553;50.766;2.900;2023-04-09T04:31:48;101676.81;;;7.77;80.66
60852;BME280;48553;50.766;2.900;2023-04-09T04:34:49;101667.81;;;7.76;80.80
60852;BME280;48553;50.766;2.900;2023-04-09T04:37:49;101669.75;;;7.76;80.77
60852;BME280;48553;50.766;2.900;2023-04-09T04:40:50;101663.47;;;7.75;80.38
60852;BME280;48553;50.766;2.900;2023-04-09T04:43:50;101661.03;;;7.73;80.42
60852;BME280;48553;50.766;2.900;2023-04-09T04:46:51;101669.22;;;7.73;80.33
60852;BME280;48553;50.766;2.900;2023-04-09T04:49:52;101667.38;;;7.69;80.70
60852;BME280;48553;50.766;2.900;2023-04-09T04:52:52;101670.91;;;7.69;80.65
60852;BME280;48553;50.766;2.900;2023-04-09T04:55:53;101674.75;;;7.68;80.51
60852;BME280;48553;50.766;2.900;2023-04-09T04:58:53;101673.63;;;7.69;80.14
60852;BME280;48553;50.766;2.900;2023-04-09T05:01:53;101678.56;;;7.67;80.28
60852;BME280;48553;50.766;2.900;2023-04-09T05:04:54;101671.78;;;7.65;80.52
60852;BME280;48553;50.766;2.900;2023-04-09T05:07:55;101677.78;;;7.67;80.20
60852;BME280;48553;50.766;2.900;2023-04-09T05:10:55;101679.69;;;7.66;80.47
60852;BME280;48553;50.766;2.900;2023-04-09T05:13:55;101677.25;;;7.65;80.43
60852;BME280;48553;50.766;2.900;2023-04-09T05:16:56;101683.81;;;7.64;80.28
60852;BME280;48553;50.766;2.900;2023-04-09T05:19:56;101689.28;;;7.64;80.31
60852;BME280;48553;50.766;2.900;2023-04-09T05:22:57;101686.56;;;7.64;80.50
60852;BME280;48553;50.766;2.900;2023-04-09T05:25:57;101682.50;;;7.61;80.41
60852;BME280;48553;50.766;2.900;2023-04-09T05:28:58;101683.81;;;7.64;80.45
60852;BME280;48553;50.766;2.900;2023-04-09T05:31:58;101689.03;;;7.60;80.05
60852;BME280;48553;50.766;2.900;2023-04-09T05:34:59;101680.06;;;7.60;80.50
60852;BME280;48553;50.766;2.900;2023-04-09T05:37:59;101687.44;;;7.59;80.20
60852;BME280;48553;50.766;2.900;2023-04-09T05:41:00;101685.78;;;7.58;80.39
60852;BME280;48553;50.766;2.900;2023-04-09T05:44:00;101686.31;;;7.60;80.29
60852;BME280;48553;50.766;2.900;2023-04-09T05:47:00;101696.69;;;7.58;80.41
60852;BME280;48553;50.766;2.900;2023-04-09T05:50:01;101690.72;;;7.56;80.58
60852;BME280;48553;50.766;2.900;2023-04-09T05:53:02;101691.25;;;7.58;80.27
60852;BME280;48553;50.766;2.900;2023-04-09T05:56:05;101689.63;;;7.57;80.48
60852;BME280;48553;50.766;2.900;2023-04-09T05:59:11;101689.91;;;7.56;80.62
60852;BME280;48553;50.766;2.900;2023-04-09T06:02:12;101686.91;;;7.57;80.43
60852;BME280;48553;50.766;2.900;2023-04-09T06:05:12;101684.19;;;7.57;80.71
60852;BME280;48553;50.766;2.900;2023-04-09T06:08:13;101687.72;;;7.58;80.68
60852;BME280;48553;50.766;2.900;2023-04-09T06:11:13;101684.38;;;7.61;80.39
60852;BME280;48553;50.766;2.900;2023-04-09T06:14:13;101688.50;;;7.58;80.87
60852;BME280;48553;50.766;2.900;2023-04-09T06:17:17;101682.50;;;7.61;80.75
60852;BME280;48553;50.766;2.900;2023-04-09T06:20:17;101677.59;;;7.58;80.96
60852;BME280;48553;50.766;2.900;2023-04-09T06:23:17;101681.97;;;7.59;80.71
60852;BME280;48553;50.766;2.900;2023-04-09T06:26:18;101686.63;;;7.59;80.45
60852;BME280;48553;50.766;2.900;2023-04-09T06:29:18;101693.41;;;7.61;80.70
60852;BME280;48553;50.766;2.900;2023-04-09T06:32:19;101683.28;;;7.62;80.64
60852;BME280;48553;50.766;2.900;2023-04-09T06:35:19;101690.16;;;7.59;80.92
60852;BME280;48553;50.766;2.900;2023-04-09T06:38:20;101690.69;;;7.61;81.14
60852;BME280;48553;50.766;2.900;2023-04-09T06:41:21;101696.66;;;7.63;81.04
60852;BME280;48553;50.766;2.900;2023-04-09T06:44:22;101692.81;;;7.64;80.79
60852;BME280;48553;50.766;2.900;2023-04-09T06:47:23;101683.22;;;7.67;81.09
60852;BME280;48553;50.766;2.900;2023-04-09T06:50:24;101688.13;;;7.70;81.00
60852;BME280;48553;50.766;2.900;2023-04-09T06:53:24;101687.25;;;7.74;80.91
60852;BME280;48553;50.766;2.900;2023-04-09T06:56:25;101686.63;;;7.78;81.10
60852;BME280;48553;50.766;2.900;2023-04-09T06:59:25;101694.03;;;7.77;81.13
60852;BME280;48553;50.766;2.900;2023-04-09T07:02:25;101697.84;;;7.76;81.20
60852;BME280;48553;50.766;2.900;2023-04-09T07:05:26;101690.16;;;7.78;81.24
60852;BME280;48553;50.766;2.900;2023-04-09T07:08:27;101697.72;;;7.86;80.88
60852;BME280;48553;50.766;2.900;2023-04-09T07:11:27;101695.88;;;7.82;81.15
60852;BME280;48553;50.766;2.900;2023-04-09T07:14:28;101682.16;;;7.87;81.12
60852;BME280;48553;50.766;2.900;2023-04-09T07:17:29;101682.31;;;7.95;81.08
60852;BME280;48553;50.766;2.900;2023-04-09T07:20:30;101689.31;;;8.02;80.92
60852;BME280;48553;50.766;2.900;2023-04-09T07:23:33;101687.09;;;8.04;81.03
60852;BME280;48553;50.766;2.900;2023-04-09T07:26:35;101688.72;;;8.05;80.98
60852;BME280;48553;50.766;2.900;2023-04-09T07:29:35;101682.97;;;8.06;81.01
60852;BME280;48553;50.766;2.900;2023-04-09T07:32:36;101693.81;;;8.11;81.03
60852;BME280;48553;50.766;2.900;2023-04-09T07:35:37;101700.00;;;8.17;80.92
60852;BME280;48553;50.766;2.900;2023-04-09T07:38:37;101689.00;;;8.22;81.20
60852;BME280;48553;50.766;2.900;2023-04-09T07:41:38;101694.97;;;8.24;80.76
60852;BME280;48553;50.766;2.900;2023-04-09T07:44:38;101691.66;;;8.27;80.98
60852;BME280;48553;50.766;2.900;2023-04-09T07:47:38;101690.78;;;8.32;81.09
60852;BME280;48553;50.766;2.900;2023-04-09T07:50:40;101694.72;;;8.40;81.03
60852;BME280;48553;50.766;2.900;2023-04-09T07:53:41;101693.13;;;8.39;80.90
60852;BME280;48553;50.766;2.900;2023-04-09T07:56:41;101696.94;;;8.37;81.26
60852;BME280;48553;50.766;2.900;2023-04-09T07:59:42;101701.03;;;8.40;81.22
60852;BME280;48553;50.766;2.900;2023-04-09T08:02:42;101705.59;;;8.45;81.18
60852;BME280;48553;50.766;2.900;2023-04-09T08:05:43;101697.94;;;8.47;80.98
60852;BME280;48553;50.766;2.900;2023-04-09T08:08:44;101691.94;;;8.45;81.28
60852;BME280;48553;50.766;2.900;2023-04-09T08:11:46;101705.53;;;8.50;81.25
60852;BME280;48553;50.766;2.900;2023-04-09T08:14:46;101694.81;;;8.53;81.32
60852;BME280;48553;50.766;2.900;2023-04-09T08:17:47;101695.84;;;8.57;81.30
60852;BME280;48553;50.766;2.900;2023-04-09T08:20:47;101702.06;;;8.63;80.96
60852;BME280;48553;50.766;2.900;2023-04-09T08:23:47;101710.66;;;8.70;80.89
60852;BME280;48553;50.766;2.900;2023-04-09T08:26:48;101708.25;;;8.83;80.68
60852;BME280;48553;50.766;2.900;2023-04-09T08:29:48;101709.06;;;8.83;80.38
60852;BME280;48553;50.766;2.900;2023-04-09T08:32:49;101703.53;;;8.88;80.57
60852;BME280;48553;50.766;2.900;2023-04-09T08:35:49;101706.59;;;9.01;80.16
60852;BME280;48553;50.766;2.900;2023-04-09T08:38:50;101707.00;;;9.08;80.06
60852;BME280;48553;50.766;2.900;2023-04-09T08:41:52;101708.91;;;9.07;80.20
60852;BME280;48553;50.766;2.900;2023-04-09T08:44:53;101710.97;;;9.15;80.31
60852;BME280;48553;50.766;2.900;2023-04-09T08:47:53;101710.75;;;9.26;79.75
60852;BME280;48553;50.766;2.900;2023-04-09T08:50:54;101708.34;;;9.38;79.78
60852;BME280;48553;50.766;2.900;2023-04-09T08:53:56;101705.50;;;9.57;80.50
60852;BME280;48553;50.766;2.900;2023-04-09T08:56:57;101700.69;;;9.76;79.83
60852;BME280;48553;50.766;2.900;2023-04-09T08:59:57;101693.97;;;9.96;80.32
60852;BME280;48553;50.766;2.900;2023-04-09T09:03:11;101693.31;;;10.13;79.81
60852;BME280;48553;50.766;2.900;2023-04-09T09:06:21;101692.69;;;10.16;80.00
60852;BME280;48553;50.766;2.900;2023-04-09T09:09:22;101688.19;;;10.34;79.71
60852;BME280;48553;50.766;2.900;2023-04-09T09:12:39;101685.25;;;10.53;79.51
60852;BME280;48553;50.766;2.900;2023-04-09T09:15:39;101684.75;;;10.74;79.36
60852;BME280;48553;50.766;2.900;2023-04-09T09:18:42;101689.19;;;10.92;80.01
60852;BME280;48553;50.766;2.900;2023-04-09T09:21:54;101690.25;;;11.05;79.20
60852;BME280;48553;50.766;2.900;2023-04-09T09:24:55;101690.78;;;11.16;79.33
60852;BME280;48553;50.766;2.900;2023-04-09T09:28:06;101686.34;;;11.46;79.65
60852;BME280;48553;50.766;2.900;2023-04-09T09:31:08;101689.47;;;11.62;80.69
60852;BME280;48553;50.766;2.900;2023-04-09T09:34:09;101688.34;;;11.71;79.86
60852;BME280;48553;50.766;2.900;2023-04-09T09:37:30;101683.91;;;11.93;79.19
60852;BME280;48553;50.766;2.900;2023-04-09T09:40:30;101680.81;;;12.12;78.82
60852;BME280;48553;50.766;2.900;2023-04-09T09:43:39;101673.22;;;12.35;79.42
60852;BME280;48553;50.766;2.900;2023-04-09T09:46:41;101674.00;;;12.62;80.17
60852;BME280;48553;50.766;2.900;2023-04-09T09:49:41;101673.44;;;12.86;79.67
60852;BME280;48553;50.766;2.900;2023-04-09T09:52:44;101664.31;;;13.03;78.95
60852;BME280;48553;50.766;2.900;2023-04-09T09:55:48;101661.50;;;13.20;78.38
60852;BME280;48553;50.766;2.900;2023-04-09T09:58:55;101668.72;;;13.42;78.44
60852;BME280;48553;50.766;2.900;2023-04-09T10:02:04;101664.28;;;13.50;79.27
60852;BME280;48553;50.766;2.900;2023-04-09T10:05:05;101672.44;;;13.67;79.65
60852;BME280;48553;50.766;2.900;2023-04-09T10:08:07;101662.22;;;13.68;77.74
60852;BME280;48553;50.766;2.900;2023-04-09T10:11:09;101660.22;;;13.77;77.32
60852;BME280;48553;50.766;2.900;2023-04-09T10:14:09;101648.00;;;13.87;77.50
60852;BME280;48553;50.766;2.900;2023-04-09T10:17:10;101642.88;;;13.97;77.64
60852;BME280;48553;50.766;2.900;2023-04-09T10:20:22;101642.59;;;14.11;77.07
60852;BME280;48553;50.766;2.900;2023-04-09T10:23:44;101650.13;;;14.23;78.07
60852;BME280;48553;50.766;2.900;2023-04-09T10:26:47;101647.53;;;14.39;77.18
60852;BME280;48553;50.766;2.900;2023-04-09T10:29:48;101633.53;;;14.44;76.29
60852;BME280;48553;50.766;2.900;2023-04-09T10:32:51;101627.44;;;14.51;76.50
60852;BME280;48553;50.766;2.900;2023-04-09T10:35:53;101624.63;;;14.59;75.70
60852;BME280;48553;50.766;2.900;2023-04-09T10:38:54;101624.88;;;14.67;75.20
60852;BME280;48553;50.766;2.900;2023-04-09T10:41:55;101625.94;;;14.74;75.15
60852;BME280;48553;50.766;2.900;2023-04-09T10:48:10;101622.16;;;15.03;75.07
60852;BME280;48553;50.766;2.900;2023-04-09T10:51:18;101618.47;;;15.12;74.80
60852;BME280;48553;50.766;2.900;2023-04-09T10:57:34;101618.00;;;15.34;74.04
60852;BME280;48553;50.766;2.900;2023-04-09T11:00:39;101619.72;;;15.51;73.66
60852;BME280;48553;50.766;2.900;2023-04-09T11:03:43;101606.78;;;15.68;73.22
60852;BME280;48553;50.766;2.900;2023-04-09T11:06:44;101614.97;;;15.76;72.76
60852;BME280;48553;50.766;2.900;2023-04-09T11:09:46;101614.22;;;15.92;72.59
60852;BME280;48553;50.766;2.900;2023-04-09T11:12:47;101598.59;;;16.12;72.71
60852;BME280;48553;50.766;2.900;2023-04-09T11:15:48;101601.19;;;16.20;73.17
60852;BME280;48553;50.766;2.900;2023-04-09T11:18:48;101605.50;;;16.34;72.29
60852;BME280;48553;50.766;2.900;2023-04-09T11:21:49;101607.75;;;16.44;72.47
60852;BME280;48553;50.766;2.900;2023-04-09T11:24:49;101611.34;;;16.60;73.43
60852;BME280;48553;50.766;2.900;2023-04-09T11:27:50;101608.78;;;16.67;72.92
60852;BME280;48553;50.766;2.900;2023-04-09T11:30:51;101598.31;;;16.77;72.05
60852;BME280;48553;50.766;2.900;2023-04-09T11:33:52;101600.13;;;16.85;71.87
60852;BME280;48553;50.766;2.900;2023-04-09T11:36:52;101587.44;;;17.00;71.47
60852;BME280;48553;50.766;2.900;2023-04-09T11:39:53;101579.28;;;17.07;72.02
60852;BME280;48553;50.766;2.900;2023-04-09T11:42:54;101572.88;;;17.38;70.24
60852;BME280;48553;50.766;2.900;2023-04-09T11:45:55;101575.72;;;17.42;70.48
60852;BME280;48553;50.766;2.900;2023-04-09T11:48:56;101586.16;;;17.48;70.56
60852;BME280;48553;50.766;2.900;2023-04-09T11:51:57;101577.78;;;17.64;69.70
60852;BME280;48553;50.766;2.900;2023-04-09T11:55:09;101582.69;;;17.71;70.15
60852;BME280;48553;50.766;2.900;2023-04-09T11:58:10;101581.09;;;17.89;70.18
60852;BME280;48553;50.766;2.900;2023-04-09T12:01:10;101578.75;;;18.11;68.14
60852;BME280;48553;50.766;2.900;2023-04-09T12:04:19;101578.78;;;18.34;67.91
60852;BME280;48553;50.766;2.900;2023-04-09T12:07:20;101581.13;;;18.32;68.41
60852;BME280;48553;50.766;2.900;2023-04-09T12:10:28;101584.03;;;18.39;67.57
60852;BME280;48553;50.766;2.900;2023-04-09T12:13:31;101581.88;;;18.52;66.74
60852;BME280;48553;50.766;2.900;2023-04-09T12:16:33;101575.91;;;18.50;67.01
60852;BME280;48553;50.766;2.900;2023-04-09T12:19:35;101579.34;;;18.43;67.54
60852;BME280;48553;50.766;2.900;2023-04-09T12:22:35;101583.06;;;18.51;67.08
60852;BME280;48553;50.766;2.900;2023-04-09T12:25:41;101565.84;;;18.65;67.02
60852;BME280;48553;50.766;2.900;2023-04-09T12:28:42;101571.41;;;18.65;66.85
60852;BME280;48553;50.766;2.900;2023-04-09T12:31:43;101560.84;;;18.74;66.80
60852;BME280;48553;50.766;2.900;2023-04-09T12:34:44;101563.50;;;18.90;66.05
60852;BME280;48553;50.766;2.900;2023-04-09T12:37:46;101567.56;;;18.96;66.09
60852;BME280;48553;50.766;2.900;2023-04-09T12:40:47;101558.59;;;19.06;66.22
60852;BME280;48553;50.766;2.900;2023-04-09T12:43:48;101557.38;;;19.04;65.19
60852;BME280;48553;50.766;2.900;2023-04-09T12:46:48;101552.72;;;19.11;65.97
60852;BME280;48553;50.766;2.900;2023-04-09T12:49:48;101543.41;;;19.27;65.01
60852;BME280;48553;50.766;2.900;2023-04-09T12:52:49;101536.53;;;19.17;64.73
60852;BME280;48553;50.766;2.900;2023-04-09T12:55:49;101542.53;;;19.23;65.00
60852;BME280;48553;50.766;2.900;2023-04-09T12:58:50;101545.00;;;19.28;64.81
60852;BME280;48553;50.766;2.900;2023-04-09T13:01:51;101542.00;;;19.40;64.62
60852;BME280;48553;50.766;2.900;2023-04-09T13:04:52;101539.06;;;19.29;65.04
60852;BME280;48553;50.766;2.900;2023-04-09T13:07:52;101548.09;;;19.23;65.14
60852;BME280;48553;50.766;2.900;2023-04-09T13:10:52;101538.31;;;19.32;63.91
60852;BME280;48553;50.766;2.900;2023-04-09T13:13:53;101528.97;;;19.48;63.50
60852;BME280;48553;50.766;2.900;2023-04-09T13:16:53;101521.06;;;19.50;62.64
60852;BME280;48553;50.766;2.900;2023-04-09T13:19:54;101517.34;;;19.38;63.56
60852;BME280;48553;50.766;2.900;2023-04-09T13:22:54;101522.56;;;19.44;63.97
60852;BME280;48553;50.766;2.900;2023-04-09T13:25:55;101511.44;;;19.44;63.74
60852;BME280;48553;50.766;2.900;2023-04-09T13:28:55;101500.00;;;19.49;62.40
60852;BME280;48553;50.766;2.900;2023-04-09T13:31:56;101497.44;;;19.67;61.88
60852;BME280;48553;50.766;2.900;2023-04-09T13:34:56;101503.47;;;19.72;62.26
60852;BME280;48553;50.766;2.900;2023-04-09T13:37:57;101482.81;;;19.73;61.33
60852;BME280;48553;50.766;2.900;2023-04-09T13:40:58;101480.47;;;19.75;61.61
60852;BME280;48553;50.766;2.900;2023-04-09T13:43:59;101485.66;;;19.77;62.15
60852;BME280;48553;50.766;2.900;2023-04-09T13:46:59;101471.75;;;19.77;61.99
60852;BME280;48553;50.766;2.900;2023-04-09T13:50:00;101480.56;;;19.83;61.56
60852;BME280;48553;50.766;2.900;2023-04-09T13:53:00;101456.31;;;19.83;61.44
60852;BME280;48553;50.766;2.900;2023-04-09T13:56:04;101463.47;;;19.84;61.82
60852;BME280;48553;50.766;2.900;2023-04-09T13:59:04;101462.69;;;19.84;60.51
60852;BME280;48553;50.766;2.900;2023-04-09T14:02:05;101457.88;;;19.80;60.35
60852;BME280;48553;50.766;2.900;2023-04-09T14:05:06;101459.09;;;19.83;59.86
60852;BME280;48553;50.766;2.900;2023-04-09T14:08:06;101455.59;;;19.90;59.69
60852;BME280;48553;50.766;2.900;2023-04-09T14:11:07;101440.78;;;19.82;59.30
60852;BME280;48553;50.766;2.900;2023-04-09T14:14:07;101431.69;;;19.85;59.86
60852;BME280;48553;50.766;2.900;2023-04-09T14:17:08;101446.28;;;19.75;59.10
60852;BME280;48553;50.766;2.900;2023-04-09T14:20:09;101428.88;;;19.81;59.57
60852;BME280;48553;50.766;2.900;2023-04-09T14:23:09;101435.53;;;19.73;60.56
60852;BME280;48553;50.766;2.900;2023-04-09T14:26:10;101430.81;;;19.77;60.75
60852;BME280;48553;50.766;2.900;2023-04-09T14:29:10;101424.91;;;19.83;60.11
60852;BME280;48553;50.766;2.900;2023-04-09T14:32:11;101427.41;;;19.95;59.72
60852;BME280;48553;50.766;2.900;2023-04-09T14:35:11;101424.94;;;19.86;59.25
60852;BME280;48553;50.766;2.900;2023-04-09T14:38:11;101430.03;;;19.77;58.25
60852;BME280;48553;50.766;2.900;2023-04-09T14:41:12;101426.72;;;19.68;58.85
60852;BME280;48553;50.766;2.900;2023-04-09T14:44:12;101430.59;;;19.59;58.75
60852;BME280;48553;50.766;2.900;2023-04-09T14:47:13;101419.88;;;19.58;59.69
60852;BME280;48553;50.766;2.900;2023-04-09T14:50:13;101420.19;;;19.49;59.93
60852;BME280;48553;50.766;2.900;2023-04-09T14:53:14;101425.25;;;19.44;58.95
60852;BME280;48553;50.766;2.900;2023-04-09T14:56:14;101412.44;;;19.32;59.53
60852;BME280;48553;50.766;2.900;2023-04-09T14:59:15;101413.94;;;19.26;60.35
60852;BME280;48553;50.766;2.900;2023-04-09T15:02:15;101414.56;;;19.12;61.65
60852;BME280;48553;50.766;2.900;2023-04-09T15:05:16;101409.72;;;19.05;62.46
60852;BME280;48553;50.766;2.900;2023-04-09T15:08:16;101408.84;;;18.97;62.43
60852;BME280;48553;50.766;2.900;2023-04-09T15:11:18;101404.78;;;18.91;62.88
60852;BME280;48553;50.766;2.900;2023-04-09T15:14:19;101395.13;;;18.82;61.21
60852;BME280;48553;50.766;2.900;2023-04-09T15:17:20;101387.84;;;18.73;61.78
60852;BME280;48553;50.766;2.900;2023-04-09T15:20:20;101383.06;;;18.70;61.47
60852;BME280;48553;50.766;2.900;2023-04-09T15:23:21;101383.38;;;18.65;62.56
60852;BME280;48553;50.766;2.900;2023-04-09T15:26:21;101390.50;;;18.63;61.97
60852;BME280;48553;50.766;2.900;2023-04-09T15:29:22;101385.25;;;18.57;62.51
60852;BME280;48553;50.766;2.900;2023-04-09T15:32:22;101377.22;;;18.49;61.49
60852;BME280;48553;50.766;2.900;2023-04-09T15:35:23;101384.69;;;18.45;62.17
60852;BME280;48553;50.766;2.900;2023-04-09T15:38:24;101385.31;;;18.34;63.24
60852;BME280;48553;50.766;2.900;2023-04-09T15:41:24;101377.31;;;18.29;63.62
60852;BME280;48553;50.766;2.900;2023-04-09T15:44:26;101381.22;;;18.25;63.84
60852;BME280;48553;50.766;2.900;2023-04-09T15:47:26;101372.03;;;18.21;64.64
60852;BME280;48553;50.766;2.900;2023-04-09T15:50:26;101372.72;;;18.14;64.17
60852;BME280;48553;50.766;2.900;2023-04-09T15:53:27;101369.47;;;18.08;64.55
60852;BME280;48553;50.766;2.900;2023-04-09T15:56:28;101362.25;;;18.04;64.10
60852;BME280;48553;50.766;2.900;2023-04-09T15:59:29;101363.75;;;17.98;64.89
60852;BME280;48553;50.766;2.900;2023-04-09T16:02:29;101369.59;;;17.92;64.81
60852;BME280;48553;50.766;2.900;2023-04-09T16:05:29;101366.41;;;17.90;65.11
60852;BME280;48553;50.766;2.900;2023-04-09T16:08:30;101367.50;;;17.86;65.00